Time;durP1;ratioP1;P1;durP2;ratioP2;P2;SDS_P1;SDS_P2;PMS_P1;PMS_P2;Temp;Humidity;BMP_temperature;BMP_pressure;BME280_temperature;BME280_humidity;BME280_pressure;Samples;Min_cycle;Max_cycle;Signal;HPM_P1;HPM_P2
2023/03/28 00:00:58;;;;;;;34.07;17.20;;;8.50;66.80;;;;;;6305657;22;20426;-66
2023/03/28 00:03:28;;;;;;;19.73;13.60;;;8.40;67.00;;;;;;6304954;22;20733;-65
2023/03/28 00:05:59;;;;;;;7.30;6.47;;;8.30;67.40;;;;;;6304828;22;20431;-65
2023/03/28 00:08:27;;;;;;;6.87;5.27;;;8.10;68.40;;;;;;6305223;22;20391;-65
2023/03/28 00:11:02;;;;;;;6.90;6.20;;;8.10;68.70;;;;;;6305501;22;20387;-64
2023/03/28 00:13:29;;;;;;;10.23;9.20;;;8.10;68.10;;;;;;6304855;22;20443;-65
2023/03/28 00:16:02;;;;;;;7.20;5.67;;;8.00;68.00;;;;;;6304549;22;20494;-65
2023/03/28 00:18:31;;;;;;;6.50;5.33;;;8.00;68.10;;;;;;6305202;22;20459;-65
2023/03/28 00:20:58;;;;;;;4.93;4.17;;;8.00;68.20;;;;;;6305256;22;20517;-65
2023/03/28 00:23:26;;;;;;;4.43;3.83;;;8.00;67.80;;;;;;6304805;22;20913;-65
2023/03/28 00:25:53;;;;;;;7.47;3.83;;;8.10;67.70;;;;;;6304218;22;20465;-65
2023/03/28 00:28:20;;;;;;;4.97;3.70;;;8.00;67.50;;;;;;6304878;22;20432;-65
2023/03/28 00:30:47;;;;;;;6.40;3.83;;;8.10;67.50;;;;;;6305249;22;20886;-64
2023/03/28 00:33:13;;;;;;;4.80;3.60;;;8.10;67.20;;;;;;6304957;22;20412;-65
2023/03/28 00:35:42;;;;;;;4.37;3.70;;;8.20;66.80;;;;;;6304645;22;20406;-66
2023/03/28 00:38:12;;;;;;;3.90;3.50;;;8.30;66.60;;;;;;6305139;22;20452;-66
2023/03/28 00:40:39;;;;;;;4.63;3.83;;;8.30;66.20;;;;;;6304283;22;20450;-66
2023/03/28 00:43:06;;;;;;;5.67;3.83;;;8.30;66.10;;;;;;6305243;22;20387;-65
2023/03/28 00:45:33;;;;;;;4.17;3.77;;;8.30;66.10;;;;;;6304808;22;20430;-65
2023/03/28 00:48:04;;;;;;;4.50;3.50;;;8.20;66.50;;;;;;6304924;22;20436;-66
2023/03/28 00:50:35;;;;;;;5.30;3.10;;;8.10;66.70;;;;;;6304991;22;20389;-65
2023/03/28 00:53:07;;;;;;;3.97;3.57;;;8.00;67.00;;;;;;6305140;22;20418;-65
2023/03/28 00:55:39;;;;;;;5.33;3.40;;;7.90;67.10;;;;;;6304420;22;20397;-66
2023/03/28 00:58:10;;;;;;;3.57;3.23;;;8.00;67.10;;;;;;6304529;22;20404;-65
2023/03/28 01:00:40;;;;;;;4.13;3.43;;;8.00;66.80;;;;;;6305006;22;20450;-65
2023/03/28 01:03:12;;;;;;;3.17;2.87;;;8.10;66.40;;;;;;6305200;22;20414;-65
2023/03/28 01:05:40;;;;;;;3.90;3.50;;;8.10;66.30;;;;;;6304129;22;20461;-65
2023/03/28 01:08:15;;;;;;;4.40;3.07;;;8.10;66.10;;;;;;6304590;22;20394;-64
2023/03/28 01:10:44;;;;;;;4.80;3.10;;;8.20;65.80;;;;;;6305075;22;20728;-65
2023/03/28 01:13:14;;;;;;;3.60;3.30;;;8.20;65.70;;;;;;6304733;22;20458;-65
2023/03/28 01:15:41;;;;;;;3.17;2.93;;;8.20;65.70;;;;;;6304175;22;20420;-65
2023/03/28 01:18:10;;;;;;;5.00;3.00;;;8.20;65.40;;;;;;6304107;22;20409;-65
2023/03/28 01:21:15;;;;;;;4.97;3.53;;;8.20;65.00;;;;;;6304921;22;20510;-65
2023/03/28 01:24:14;;;;;;;5.20;2.90;;;8.20;64.80;;;;;;6248409;22;20449;-65
2023/03/28 01:26:49;;;;;;;4.23;3.00;;;8.10;64.70;;;;;;6298789;22;20469;-65
2023/03/28 01:29:53;;;;;;;3.57;2.80;;;8.00;64.60;;;;;;6307022;22;20397;-65
2023/03/28 01:32:58;;;;;;;2.70;2.50;;;8.00;64.60;;;;;;6306786;22;21107;-65
2023/03/28 01:36:02;;;;;;;3.63;3.30;;;8.00;64.60;;;;;;6306422;22;20412;-65
2023/03/28 01:38:36;;;;;;;4.13;3.00;;;7.90;64.50;;;;;;6306545;22;20429;-65
2023/03/28 01:41:07;;;;;;;4.90;3.30;;;7.90;64.50;;;;;;6307067;22;20512;-65
2023/03/28 01:43:42;;;;;;;3.10;2.80;;;7.90;64.50;;;;;;6306700;22;20391;-66
2023/03/28 01:46:17;;;;;;;3.87;2.77;;;7.90;64.50;;;;;;6306530;22;20396;-66
2023/03/28 01:48:55;;;;;;;5.07;3.00;;;7.90;64.20;;;;;;6306410;22;20875;-66
2023/03/28 01:51:29;;;;;;;3.80;2.67;;;7.90;65.00;;;;;;6306916;22;20418;-65
2023/03/28 01:54:05;;;;;;;3.40;3.10;;;7.80;64.40;;;;;;6306447;22;20473;-66
2023/03/28 01:56:38;;;;;;;5.93;2.90;;;7.80;64.40;;;;;;6306444;22;20488;-66
2023/03/28 01:59:15;;;;;;;4.13;3.10;;;7.70;64.30;;;;;;6306508;22;21006;-65
2023/03/28 02:01:50;;;;;;;9.37;3.37;;;7.70;65.40;;;;;;6306564;22;20473;-65
2023/03/28 02:04:19;;;;;;;3.60;3.30;;;7.70;64.80;;;;;;6306530;22;20761;-64
2023/03/28 02:06:47;;;;;;;3.30;3.00;;;7.60;64.80;;;;;;6306062;22;20390;-65
2023/03/28 02:09:18;;;;;;;6.20;3.43;;;7.60;65.50;;;;;;6306591;22;20408;-66
2023/03/28 02:11:47;;;;;;;3.30;3.00;;;7.50;64.70;;;;;;6306194;22;20436;-65
2023/03/28 02:14:18;;;;;;;4.80;3.33;;;7.50;64.80;;;;;;6306340;22;20406;-65
2023/03/28 02:16:48;;;;;;;4.13;3.30;;;7.50;64.80;;;;;;6306032;22;20432;-65
2023/03/28 02:19:16;;;;;;;3.47;3.10;;;7.40;64.70;;;;;;6306430;22;20684;-65
2023/03/28 02:21:50;;;;;;;3.53;3.20;;;7.40;64.90;;;;;;6305755;22;20769;-66
2023/03/28 02:24:18;;;;;;;3.70;3.33;;;7.40;64.80;;;;;;6306345;22;20748;-66
2023/03/28 02:26:45;;;;;;;4.63;2.73;;;7.40;65.60;;;;;;6306094;22;20415;-65
2023/03/28 02:29:13;;;;;;;3.70;3.00;;;7.30;64.90;;;;;;6306041;22;20481;-65
2023/03/28 02:31:41;;;;;;;4.37;3.20;;;7.30;65.10;;;;;;6306189;22;20407;-65
2023/03/28 02:34:09;;;;;;;4.07;3.20;;;7.20;65.10;;;;;;6306444;22;20402;-66
2023/03/28 02:36:46;;;;;;;3.23;2.93;;;7.20;65.30;;;;;;6305063;22;20926;-65
2023/03/28 02:39:44;;;;;;;3.87;3.20;;;7.20;65.40;;;;;;6306351;22;20423;-66
2023/03/28 02:42:28;;;;;;;3.97;3.03;;;7.20;65.20;;;;;;6305895;22;20501;-66
2023/03/28 02:45:20;;;;;;;4.27;3.47;;;7.20;65.10;;;;;;6306715;22;20779;-64
2023/03/28 02:48:00;;;;;;;5.53;2.95;;;7.20;64.90;;;;;;6305685;22;20485;-66
2023/03/28 02:50:36;;;;;;;4.00;3.10;;;7.20;65.00;;;;;;6305710;22;20218;-65
2023/03/28 02:53:11;;;;;;;4.17;3.10;;;7.20;65.00;;;;;;6306393;22;20386;-65
2023/03/28 02:55:44;;;;;;;3.90;2.70;;;7.20;65.00;;;;;;6306041;22;20439;-66
2023/03/28 02:58:16;;;;;;;3.77;3.10;;;7.20;64.80;;;;;;6305738;22;20392;-65
2023/03/28 03:00:43;;;;;;;4.33;2.73;;;7.20;64.60;;;;;;6305759;22;20423;-65
2023/03/28 03:03:10;;;;;;;3.87;2.80;;;7.20;64.50;;;;;;6305956;22;20766;-65
2023/03/28 03:05:38;;;;;;;3.57;2.80;;;7.10;64.50;;;;;;6305198;22;20954;-66
2023/03/28 03:08:05;;;;;;;3.57;3.27;;;7.10;64.50;;;;;;6305747;22;20772;-65
2023/03/28 03:10:32;;;;;;;3.80;3.07;;;7.10;64.50;;;;;;6305577;22;20409;-65
2023/03/28 03:13:00;;;;;;;3.23;2.93;;;7.10;64.40;;;;;;6306071;22;20413;-64
2023/03/28 03:15:29;;;;;;;3.30;2.97;;;7.00;64.50;;;;;;6305486;22;20493;-66
2023/03/28 03:17:57;;;;;;;4.23;3.17;;;7.00;64.70;;;;;;6305720;22;20442;-65
2023/03/28 03:20:25;;;;;;;4.17;3.10;;;7.00;64.70;;;;;;6305575;22;20434;-65
2023/03/28 03:22:51;;;;;;;3.37;3.00;;;7.00;64.70;;;;;;6306114;22;20698;-66
2023/03/28 03:25:18;;;;;;;4.43;3.10;;;7.00;64.70;;;;;;6305532;22;20485;-64
2023/03/28 03:27:45;;;;;;;4.93;3.53;;;7.00;64.90;;;;;;6305109;22;20427;-66
2023/03/28 03:30:14;;;;;;;4.20;3.23;;;7.00;65.00;;;;;;6305620;22;20492;-64
2023/03/28 03:32:42;;;;;;;4.37;3.50;;;7.00;64.80;;;;;;6305733;22;20410;-66
2023/03/28 03:35:10;;;;;;;5.37;3.33;;;6.90;65.00;;;;;;6305666;22;20413;-64
2023/03/28 03:37:36;;;;;;;4.70;3.67;;;6.90;65.20;;;;;;6305725;22;20411;-64
2023/03/28 03:40:04;;;;;;;4.43;3.57;;;6.90;65.20;;;;;;6305072;22;20182;-65
2023/03/28 03:42:31;;;;;;;3.70;3.20;;;6.80;65.20;;;;;;6305583;22;20447;-64
2023/03/28 03:44:58;;;;;;;5.37;3.23;;;6.90;65.40;;;;;;6305616;22;20409;-65
2023/03/28 03:47:26;;;;;;;5.30;3.20;;;6.80;65.30;;;;;;6305144;22;20410;-65
2023/03/28 03:49:53;;;;;;;5.67;3.20;;;6.80;65.30;;;;;;6304832;22;20390;-64
2023/03/28 03:52:20;;;;;;;3.70;3.10;;;6.80;65.40;;;;;;6305708;22;20406;-66
2023/03/28 03:54:46;;;;;;;6.87;3.83;;;6.80;65.10;;;;;;6305482;22;20406;-66
2023/03/28 03:57:13;;;;;;;3.07;2.70;;;6.80;64.90;;;;;;6305108;22;20390;-65
2023/03/28 03:59:40;;;;;;;4.13;3.10;;;6.80;64.80;;;;;;6305588;22;20489;-66
2023/03/28 04:02:07;;;;;;;5.90;3.50;;;6.80;64.80;;;;;;6304749;22;20295;-66
2023/03/28 04:04:35;;;;;;;4.70;3.37;;;6.80;65.00;;;;;;6304881;22;20842;-65
2023/03/28 04:07:02;;;;;;;4.13;3.30;;;6.70;66.10;;;;;;6305139;22;20886;-66
2023/03/28 04:09:29;;;;;;;4.37;3.47;;;6.60;65.50;;;;;;6305052;22;20426;-65
2023/03/28 04:11:56;;;;;;;3.70;3.30;;;6.60;65.70;;;;;;6305412;22;20492;-64
2023/03/28 04:14:23;;;;;;;4.57;3.60;;;6.60;65.60;;;;;;6304769;22;20902;-65
2023/03/28 04:16:52;;;;;;;3.50;3.03;;;6.70;65.60;;;;;;6304564;22;20804;-65
2023/03/28 04:19:19;;;;;;;4.67;3.57;;;6.60;65.70;;;;;;6305181;22;20750;-64
2023/03/28 04:21:51;;;;;;;3.87;3.37;;;6.60;65.60;;;;;;6305181;22;20491;-65
2023/03/28 04:24:23;;;;;;;3.63;3.30;;;6.50;65.50;;;;;;6305399;22;20390;-65
2023/03/28 04:26:54;;;;;;;5.40;3.30;;;6.50;65.40;;;;;;6304774;22;20426;-65
2023/03/28 04:29:29;;;;;;;5.97;3.70;;;6.40;65.40;;;;;;6305165;22;20763;-65
2023/03/28 04:31:56;;;;;;;5.32;3.63;;;6.40;65.60;;;;;;6303929;22;20382;-65
2023/03/28 04:34:28;;;;;;;5.20;3.83;;;6.40;65.80;;;;;;6304184;22;20259;-65
2023/03/28 04:37:00;;;;;;;4.38;3.60;;;6.40;65.80;;;;;;6304689;22;20467;-65
2023/03/28 04:39:28;;;;;;;4.80;3.73;;;6.30;65.70;;;;;;6304837;22;20168;-65
2023/03/28 04:41:55;;;;;;;4.60;3.67;;;6.30;65.70;;;;;;6304566;22;20537;-66
2023/03/28 04:44:22;;;;;;;4.07;3.67;;;6.30;65.70;;;;;;6305076;22;20454;-65
2023/03/28 04:46:49;;;;;;;5.47;3.53;;;6.30;65.70;;;;;;6304885;22;20406;-65
2023/03/28 04:49:16;;;;;;;4.93;3.40;;;6.30;65.80;;;;;;6304457;22;20463;-65
2023/03/28 04:51:43;;;;;;;6.35;3.67;;;6.30;66.10;;;;;;6304616;22;20401;-65
2023/03/28 04:54:12;;;;;;;4.10;3.43;;;6.20;66.10;;;;;;6304606;22;20512;-66
2023/03/28 04:56:38;;;;;;;4.67;3.97;;;6.20;66.00;;;;;;6304741;22;20719;-64
2023/03/28 04:59:06;;;;;;;4.43;3.27;;;6.20;66.10;;;;;;6304848;22;20489;-64
2023/03/28 05:01:33;;;;;;;3.80;2.97;;;6.20;66.20;;;;;;6303510;22;20806;-65
2023/03/28 05:04:01;;;;;;;5.43;3.20;;;6.20;66.10;;;;;;6304323;22;20402;-65
2023/03/28 05:06:28;;;;;;;4.00;3.60;;;6.20;66.10;;;;;;6304935;22;20426;-65
2023/03/28 05:08:54;;;;;;;3.20;2.90;;;6.20;66.20;;;;;;6304442;22;20847;-65
2023/03/28 05:11:24;;;;;;;3.50;3.10;;;6.20;65.80;;;;;;6304720;22;20402;-65
2023/03/28 05:13:51;;;;;;;5.68;3.42;;;6.20;65.60;;;;;;6304540;22;20282;-65
2023/03/28 05:16:18;;;;;;;4.00;3.17;;;6.20;65.20;;;;;;6304477;22;20219;-64
2023/03/28 05:18:46;;;;;;;3.45;3.00;;;6.20;65.20;;;;;;6304773;22;20426;-65
2023/03/28 05:21:13;;;;;;;5.22;3.55;;;6.20;65.40;;;;;;6304837;22;20275;-65
2023/03/28 05:23:40;;;;;;;4.97;3.22;;;6.20;65.40;;;;;;6304680;22;20254;-65
2023/03/28 05:26:07;;;;;;;4.50;3.40;;;6.20;65.80;;;;;;6304069;22;20235;-66
2023/03/28 05:28:35;;;;;;;4.13;3.10;;;6.20;66.00;;;;;;6305134;22;20485;-66
2023/03/28 05:31:02;;;;;;;4.57;3.17;;;6.20;66.00;;;;;;6304565;22;20514;-66
2023/03/28 05:33:31;;;;;;;5.17;3.10;;;6.20;66.00;;;;;;6303567;22;20472;-66
2023/03/28 05:35:59;;;;;;;3.70;3.20;;;6.20;66.00;;;;;;6303054;22;20413;-66
2023/03/28 05:38:26;;;;;;;3.65;2.85;;;6.20;65.90;;;;;;6304024;22;20501;-66
2023/03/28 05:40:52;;;;;;;4.00;3.23;;;6.20;65.50;;;;;;6304247;22;20227;-66
2023/03/28 05:43:19;;;;;;;6.23;3.63;;;6.20;65.60;;;;;;6304126;22;20434;-66
2023/03/28 05:45:48;;;;;;;5.38;3.22;;;6.30;65.90;;;;;;6303887;22;20842;-65
2023/03/28 05:48:14;;;;;;;4.30;3.10;;;6.30;66.00;;;;;;6304228;22;20263;-64
2023/03/28 05:50:41;;;;;;;3.67;2.95;;;6.30;66.00;;;;;;6304365;22;20493;-66
2023/03/28 05:53:08;;;;;;;6.13;4.00;;;6.30;66.00;;;;;;6303613;22;20283;-65
2023/03/28 05:55:35;;;;;;;5.75;3.97;;;6.30;66.30;;;;;;6304080;22;20738;-65
2023/03/28 05:58:02;;;;;;;4.38;3.88;;;6.30;66.30;;;;;;6303380;22;20176;-65
2023/03/28 06:00:29;;;;;;;6.03;3.50;;;6.30;66.30;;;;;;6303505;22;20175;-66
2023/03/28 06:02:57;;;;;;;8.83;3.27;;;6.30;66.40;;;;;;6303829;22;20438;-66
2023/03/28 06:05:25;;;;;;;5.03;3.40;;;6.30;66.50;;;;;;6303059;22;20513;-65
2023/03/28 06:07:51;;;;;;;4.57;3.27;;;6.30;66.50;;;;;;6301847;22;20413;-65
2023/03/28 06:10:18;;;;;;;3.57;2.80;;;6.40;66.60;;;;;;6303707;22;20409;-65
2023/03/28 06:12:45;;;;;;;5.10;3.17;;;6.40;66.90;;;;;;6304070;22;20403;-67
2023/03/28 06:15:12;;;;;;;4.63;3.17;;;6.40;67.10;;;;;;6305304;22;20509;-65
2023/03/28 06:17:39;;;;;;;4.13;2.90;;;6.50;67.20;;;;;;6305529;22;20406;-66
2023/03/28 06:20:09;;;;;;;4.63;3.50;;;6.50;67.20;;;;;;6305137;22;20970;-66
2023/03/28 06:22:36;;;;;;;4.53;3.33;;;6.60;67.30;;;;;;6305045;22;20442;-66
2023/03/28 06:25:03;;;;;;;4.13;3.60;;;6.60;67.20;;;;;;6305372;22;20403;-66
2023/03/28 06:27:30;;;;;;;4.80;3.70;;;6.70;67.40;;;;;;6304521;22;20414;-66
2023/03/28 06:29:58;;;;;;;5.50;3.13;;;6.70;67.30;;;;;;6305054;22;20498;-65
2023/03/28 06:32:25;;;;;;;3.60;3.20;;;6.70;67.60;;;;;;6305217;22;20423;-65
2023/03/28 06:34:52;;;;;;;10.03;3.43;;;6.60;67.60;;;;;;6305247;22;20412;-66
2023/03/28 06:37:20;;;;;;;6.33;3.57;;;6.70;68.00;;;;;;6305089;22;20402;-65
2023/03/28 06:39:49;;;;;;;5.03;3.30;;;6.70;67.90;;;;;;6305175;22;20460;-65
2023/03/28 06:42:16;;;;;;;5.23;3.47;;;6.80;68.00;;;;;;6304298;22;20477;-67
2023/03/28 06:44:43;;;;;;;4.70;3.43;;;6.90;68.10;;;;;;6305270;22;20417;-65
2023/03/28 06:47:10;;;;;;;5.07;3.83;;;6.90;68.90;;;;;;6305039;22;20521;-66
2023/03/28 06:49:36;;;;;;;4.90;3.53;;;7.00;68.00;;;;;;6305087;22;20743;-66
2023/03/28 06:52:03;;;;;;;6.73;3.87;;;7.00;67.90;;;;;;6304570;22;20402;-65
2023/03/28 06:54:32;;;;;;;7.33;3.63;;;7.10;67.90;;;;;;6305594;22;20485;-65
2023/03/28 06:56:58;;;;;;;6.57;3.40;;;7.20;67.90;;;;;;6305684;22;20430;-64
2023/03/28 06:59:26;;;;;;;5.40;3.53;;;7.30;68.00;;;;;;6306229;22;20408;-65
2023/03/28 07:01:52;;;;;;;7.77;3.63;;;7.40;67.40;;;;;;6305608;22;20503;-65
2023/03/28 07:04:22;;;;;;;4.70;3.63;;;7.50;67.40;;;;;;6305985;22;20438;-65
2023/03/28 07:06:49;;;;;;;6.40;3.90;;;7.60;67.30;;;;;;6305967;22;20409;-65
2023/03/28 07:09:16;;;;;;;8.87;3.93;;;7.60;67.20;;;;;;6305709;22;20430;-66
2023/03/28 07:11:44;;;;;;;6.60;3.70;;;7.70;67.30;;;;;;6305593;22;20490;-65
2023/03/28 07:14:14;;;;;;;4.77;3.90;;;7.80;67.00;;;;;;6305871;22;20406;-66
2023/03/28 07:16:44;;;;;;;4.90;3.43;;;7.80;66.40;;;;;;6305800;22;20721;-66
2023/03/28 07:19:11;;;;;;;6.70;3.43;;;7.90;67.50;;;;;;6306125;22;20485;-66
2023/03/28 07:21:37;;;;;;;7.27;4.20;;;8.00;66.70;;;;;;6305500;22;20509;-65
2023/03/28 07:24:05;;;;;;;5.23;3.70;;;8.10;66.70;;;;;;6305080;22;20909;-65
2023/03/28 07:26:32;;;;;;;6.37;3.63;;;8.10;66.70;;;;;;6305600;22;20416;-67
2023/03/28 07:29:00;;;;;;;4.97;4.00;;;8.10;66.60;;;;;;6305985;22;20453;-66
2023/03/28 07:31:27;;;;;;;8.63;3.70;;;8.20;67.00;;;;;;6306155;22;20498;-66
2023/03/28 07:33:56;;;;;;;5.07;3.60;;;8.30;66.50;;;;;;6305553;22;21331;-66
2023/03/28 07:36:24;;;;;;;5.03;4.43;;;8.40;66.30;;;;;;6305766;22;20398;-66
2023/03/28 07:38:51;;;;;;;6.23;4.00;;;8.50;66.10;;;;;;6305809;22;20410;-66
2023/03/28 07:41:18;;;;;;;8.87;3.90;;;8.50;65.50;;;;;;6305465;22;20517;-66
2023/03/28 07:43:45;;;;;;;5.83;3.83;;;8.60;65.10;;;;;;6305612;22;20442;-67
2023/03/28 07:46:14;;;;;;;5.30;3.90;;;8.70;64.40;;;;;;6305926;22;20772;-67
2023/03/28 07:48:45;;;;;;;4.77;3.20;;;8.80;63.90;;;;;;6305756;22;20413;-66
2023/03/28 07:53:47;;;;;;;4.53;3.30;;;9.00;63.50;;;;;;6211948;23;20467;-67
2023/03/28 07:56:14;;;;;;;6.83;3.87;;;9.10;62.60;;;;;;6210831;23;20420;-67
2023/03/28 07:58:41;;;;;;;4.50;3.10;;;9.10;62.70;;;;;;6212841;23;20897;-67
2023/03/28 08:01:11;;;;;;;5.87;2.73;;;9.20;62.50;;;;;;6212787;23;20437;-67
2023/03/28 08:03:41;;;;;;;5.83;3.67;;;9.30;61.10;;;;;;6212319;23;20761;-67
2023/03/28 08:06:17;;;;;;;3.70;3.13;;;9.40;60.40;;;;;;6212719;23;20886;-67
2023/03/28 08:08:45;;;;;;;4.60;2.70;;;9.40;60.00;;;;;;6212464;23;20496;-67
2023/03/28 08:11:13;;;;;;;6.13;3.17;;;9.50;60.10;;;;;;6212703;23;20416;-67
2023/03/28 08:13:39;;;;;;;4.93;3.17;;;9.60;59.80;;;;;;6212466;23;20436;-67
2023/03/28 08:16:07;;;;;;;7.10;3.23;;;9.70;59.90;;;;;;6212648;23;20497;-66
2023/03/28 08:18:34;;;;;;;6.60;2.97;;;9.80;59.30;;;;;;6212425;23;20492;-66
2023/03/28 08:21:03;;;;;;;4.93;2.50;;;9.90;58.30;;;;;;6212885;23;20454;-66
2023/03/28 08:23:30;;;;;;;4.87;2.97;;;9.90;58.30;;;;;;6212122;23;20447;-67
2023/03/28 08:26:03;;;;;;;5.10;2.90;;;10.10;57.90;;;;;;6212683;23;20439;-66
2023/03/28 08:28:32;;;;;;;5.90;3.33;;;10.10;57.20;;;;;;6212267;23;20420;-67
2023/03/28 08:30:59;;;;;;;5.17;3.50;;;10.10;57.00;;;;;;6212362;23;20415;-67
2023/03/28 08:33:27;;;;;;;4.33;3.07;;;10.20;56.90;;;;;;6212310;23;20945;-67
2023/03/28 08:35:54;;;;;;;5.80;3.37;;;10.30;57.30;;;;;;6212214;23;20476;-66
2023/03/28 08:38:23;;;;;;;3.63;2.93;;;10.30;57.20;;;;;;6212063;23;20548;-66
2023/03/28 08:40:59;;;;;;;5.23;3.03;;;10.40;56.90;;;;;;6212781;23;20412;-66
2023/03/28 08:43:48;;;;;;;3.97;3.00;;;10.50;56.80;;;;;;6212004;23;20520;-67
2023/03/28 08:46:17;;;;;;;5.33;2.73;;;10.50;56.20;;;;;;6209709;23;20494;-67
2023/03/28 08:48:47;;;;;;;5.00;2.43;;;10.60;56.20;;;;;;6212343;23;20409;-66
2023/03/28 08:51:20;;;;;;;5.00;3.03;;;10.70;54.60;;;;;;6212329;23;20516;-67
2023/03/28 08:53:52;;;;;;;6.13;3.10;;;10.70;54.90;;;;;;6211625;23;20577;-66
2023/03/28 08:56:19;;;;;;;5.47;2.90;;;10.70;54.50;;;;;;6212848;23;20389;-66
2023/03/28 08:58:57;;;;;;;4.80;2.00;;;10.90;54.10;;;;;;6212391;23;20484;-66
2023/03/28 09:01:28;;;;;;;4.23;2.13;;;10.90;52.20;;;;;;6212821;23;20388;-68
2023/03/28 09:03:55;;;;;;;5.37;2.30;;;11.00;51.90;;;;;;6212014;23;20563;-66
2023/03/28 09:06:28;;;;;;;4.63;2.07;;;11.20;52.60;;;;;;6212311;23;20411;-67
2023/03/28 09:09:31;;;;;;;4.50;2.10;;;11.30;52.60;;;;;;6211836;23;20425;-66
2023/03/28 09:12:08;;;;;;;6.50;2.20;;;11.30;51.70;;;;;;6209781;22;20787;-67
2023/03/28 09:15:03;;;;;;;5.57;2.33;;;11.30;50.50;;;;;;6212181;23;20423;-67
2023/03/28 09:17:42;;;;;;;4.00;2.10;;;11.40;50.20;;;;;;6212194;23;20811;-66
2023/03/28 09:20:13;;;;;;;4.07;1.97;;;11.40;49.20;;;;;;6212452;23;20468;-65
2023/03/28 09:22:51;;;;;;;3.50;2.00;;;11.60;49.50;;;;;;6211448;23;20544;-66
2023/03/28 09:25:31;;;;;;;5.10;2.27;;;11.70;49.40;;;;;;6212064;23;20400;-66
2023/03/28 09:28:06;;;;;;;4.40;2.37;;;11.60;49.20;;;;;;6212217;23;20416;-66
2023/03/28 09:30:36;;;;;;;2.90;2.00;;;11.60;49.50;;;;;;6211923;23;20399;-65
2023/03/28 09:33:10;;;;;;;3.07;2.00;;;11.70;50.20;;;;;;6211745;23;20469;-66
2023/03/28 09:35:39;;;;;;;3.70;2.10;;;11.90;49.60;;;;;;6211893;23;20736;-66
2023/03/28 09:38:17;;;;;;;5.07;1.97;;;11.90;48.70;;;;;;6211875;23;20492;-65
2023/03/28 09:40:47;;;;;;;4.83;1.70;;;11.90;48.00;;;;;;6212335;23;20432;-66
2023/03/28 09:43:19;;;;;;;3.63;2.00;;;11.90;47.40;;;;;;6211795;23;20449;-66
2023/03/28 09:45:57;;;;;;;3.20;2.13;;;11.90;47.50;;;;;;6212343;23;20773;-66
2023/03/28 09:48:27;;;;;;;4.20;2.03;;;11.90;47.50;;;;;;6213770;23;20494;-66
2023/03/28 09:50:54;;;;;;;3.27;2.20;;;12.10;48.00;;;;;;6213773;23;20481;-65
2023/03/28 09:53:25;;;;;;;4.77;2.13;;;12.20;48.20;;;;;;6213770;23;20849;-65
2023/03/28 09:55:54;;;;;;;3.43;2.30;;;12.20;47.00;;;;;;6213998;23;20519;-65
2023/03/28 09:58:21;;;;;;;2.97;2.10;;;12.10;47.00;;;;;;6213754;23;20405;-65
2023/03/28 10:00:49;;;;;;;4.60;2.13;;;12.20;48.00;;;;;;6213955;23;20435;-66
2023/03/28 10:03:22;;;;;;;3.07;2.13;;;12.50;47.80;;;;;;6213661;23;20502;-65
2023/03/28 10:05:50;;;;;;;6.60;2.30;;;12.80;47.50;;;;;;6213949;23;20397;-67
2023/03/28 10:08:23;;;;;;;4.60;2.10;;;13.00;47.70;;;;;;6213607;23;20409;-67
2023/03/28 10:11:03;;;;;;;2.30;1.67;;;13.30;48.20;;;;;;6213838;23;20425;-67
2023/03/28 10:13:36;;;;;;;3.37;1.80;;;13.70;46.20;;;;;;6213321;23;20503;-66
2023/03/28 10:16:05;;;;;;;2.93;1.90;;;13.90;43.60;;;;;;6213981;23;20455;-68
2023/03/28 10:18:33;;;;;;;3.53;2.07;;;14.10;44.90;;;;;;6213715;23;20729;-66
2023/03/28 10:21:09;;;;;;;4.10;2.03;;;14.10;43.20;;;;;;6213367;23;21019;-65
2023/03/28 10:23:36;;;;;;;2.40;1.67;;;13.80;41.10;;;;;;6213800;23;20428;-67
2023/03/28 10:26:05;;;;;;;5.70;1.77;;;13.90;43.00;;;;;;6213519;23;20507;-66
2023/03/28 10:28:34;;;;;;;3.97;1.90;;;14.00;43.40;;;;;;6213811;23;20393;-66
2023/03/28 10:31:02;;;;;;;3.40;1.77;;;14.20;43.10;;;;;;6213781;23;20492;-65
2023/03/28 10:33:33;;;;;;;3.23;1.97;;;14.40;43.10;;;;;;6212709;23;20512;-66
2023/03/28 10:36:03;;;;;;;2.73;1.80;;;14.80;42.30;;;;;;6213273;23;20405;-65
2023/03/28 10:38:36;;;;;;;2.47;1.87;;;15.00;43.50;;;;;;6213164;23;20497;-67
2023/03/28 10:41:09;;;;;;;4.53;1.87;;;15.20;40.10;;;;;;6213545;23;20393;-66
2023/03/28 10:43:38;;;;;;;2.60;1.60;;;15.20;37.80;;;;;;6213436;23;20747;-68
2023/03/28 10:46:10;;;;;;;3.13;1.87;;;15.00;36.40;;;;;;6213446;23;20432;-66
2023/03/28 10:48:38;;;;;;;3.93;2.00;;;14.90;38.10;;;;;;6213292;23;20704;-67
2023/03/28 10:51:09;;;;;;;4.30;2.40;;;14.70;39.20;;;;;;6213287;23;20955;-65
2023/03/28 10:54:17;;;;;;;4.37;2.10;;;14.80;40.60;;;;;;6213344;23;20444;-66
2023/03/28 10:56:51;;;;;;;2.33;1.57;;;14.70;38.80;;;;;;6212894;23;20881;-65
2023/03/28 10:59:32;;;;;;;3.50;2.10;;;14.50;37.70;;;;;;6214607;23;20393;-66
2023/03/28 11:02:21;;;;;;;3.97;1.97;;;14.40;37.20;;;;;;6214606;23;20396;-66
2023/03/28 11:04:56;;;;;;;3.57;1.60;;;14.30;36.80;;;;;;6212739;23;20455;-67
2023/03/28 11:07:31;;;;;;;4.17;2.07;;;14.30;37.30;;;;;;6213947;23;20467;-66
2023/03/28 11:10:09;;;;;;;4.43;2.40;;;14.30;36.00;;;;;;6213892;23;20408;-67
2023/03/28 11:12:50;;;;;;;4.80;2.00;;;14.10;36.30;;;;;;6213130;23;20404;-66
2023/03/28 11:15:23;;;;;;;3.33;2.20;;;14.30;36.60;;;;;;6213427;23;20455;-65
2023/03/28 11:18:01;;;;;;;3.20;1.97;;;14.40;36.10;;;;;;6212924;23;20802;-67
2023/03/28 11:20:39;;;;;;;4.40;2.20;;;14.30;36.50;;;;;;6214094;23;20480;-66
2023/03/28 11:23:32;;;;;;;4.07;1.90;;;14.40;37.70;;;;;;6214216;23;20448;-67
2023/03/28 11:26:07;;;;;;;4.63;1.80;;;14.50;37.90;;;;;;6210669;23;20440;-67
2023/03/28 11:28:47;;;;;;;3.97;1.80;;;14.50;38.10;;;;;;6214365;23;20867;-66
2023/03/28 11:31:18;;;;;;;4.57;2.00;;;14.70;39.50;;;;;;6213974;23;21204;-66
2023/03/28 11:33:53;;;;;;;2.17;1.67;;;14.80;38.70;;;;;;6214200;23;20472;-65
2023/03/28 11:36:28;;;;;;;2.97;1.80;;;15.00;39.10;;;;;;6214035;23;20498;-65
2023/03/28 11:39:01;;;;;;;3.23;2.00;;;15.30;39.20;;;;;;6212833;23;20424;-66
2023/03/28 11:41:33;;;;;;;2.10;1.80;;;15.40;36.20;;;;;;6209937;23;20421;-67
2023/03/28 11:44:06;;;;;;;3.57;2.17;;;15.20;37.40;;;;;;6212057;23;20559;-66
2023/03/28 11:46:36;;;;;;;2.97;1.80;;;15.10;36.00;;;;;;6212507;23;20464;-66
2023/03/28 11:49:15;;;;;;;4.57;2.33;;;15.10;37.00;;;;;;6210439;23;20528;-66
2023/03/28 11:51:48;;;;;;;4.37;2.20;;;15.20;36.10;;;;;;6211629;23;20478;-66
2023/03/28 11:54:19;;;;;;;3.17;2.03;;;15.20;35.50;;;;;;6212627;23;20432;-66
2023/03/28 11:56:53;;;;;;;3.77;2.20;;;15.20;36.00;;;;;;6212518;23;20393;-66
2023/03/28 11:59:26;;;;;;;3.07;2.00;;;15.10;35.60;;;;;;6212723;23;20396;-65
2023/03/28 12:01:59;;;;;;;3.63;2.27;;;15.00;35.70;;;;;;6212311;23;20701;-67
2023/03/28 12:04:30;;;;;;;4.27;1.93;;;14.80;34.80;;;;;;6212285;23;20456;-67
2023/03/28 12:07:07;;;;;;;3.00;2.20;;;14.50;35.80;;;;;;6211804;23;20396;-66
2023/03/28 12:09:43;;;;;;;3.60;2.03;;;14.40;36.90;;;;;;6211686;23;20401;-66
2023/03/28 12:12:13;;;;;;;3.63;2.27;;;14.60;37.00;;;;;;6212006;23;20975;-65
2023/03/28 12:14:50;;;;;;;4.30;2.13;;;14.80;37.50;;;;;;6212244;23;20446;-66
2023/03/28 12:17:22;;;;;;;2.93;1.80;;;15.00;37.40;;;;;;6211533;23;20400;-65
2023/03/28 12:19:49;;;;;;;2.97;1.70;;;15.30;37.00;;;;;;6212139;23;20407;-65
2023/03/28 12:22:22;;;;;;;3.23;2.10;;;15.60;37.40;;;;;;6211935;23;20409;-65
2023/03/28 12:24:54;;;;;;;2.30;2.10;;;15.70;35.90;;;;;;6212121;23;20925;-68
2023/03/28 12:27:26;;;;;;;4.23;1.93;;;15.70;36.10;;;;;;6211321;23;20520;-66
2023/03/28 12:29:59;;;;;;;4.00;2.17;;;15.80;36.20;;;;;;6211741;23;20396;-65
2023/03/28 12:32:39;;;;;;;5.17;1.80;;;15.80;35.60;;;;;;6212142;23;20751;-66
2023/03/28 12:35:14;;;;;;;4.33;2.40;;;15.80;36.40;;;;;;6211945;23;20384;-66
2023/03/28 12:37:53;;;;;;;2.77;2.07;;;16.00;35.50;;;;;;6211982;23;20395;-65
2023/03/28 12:40:26;;;;;;;2.17;1.80;;;16.00;35.60;;;;;;6211586;23;20833;-66
2023/03/28 12:43:11;;;;;;;3.20;1.80;;;16.10;36.50;;;;;;6211234;23;20436;-65
2023/03/28 12:45:42;;;;;;;2.40;1.80;;;16.30;35.50;;;;;;6207781;23;20951;-66
2023/03/28 12:48:16;;;;;;;3.27;1.70;;;16.50;35.20;;;;;;6211603;23;20736;-67
2023/03/28 12:50:53;;;;;;;2.83;2.17;;;16.40;36.10;;;;;;6211623;23;20717;-66
2023/03/28 12:53:23;;;;;;;3.97;2.30;;;16.40;36.10;;;;;;6211281;23;20988;-66
2023/03/28 12:55:54;;;;;;;2.30;1.50;;;16.30;34.60;;;;;;6210944;23;20479;-66
2023/03/28 12:58:24;;;;;;;2.70;1.70;;;16.30;36.30;;;;;;6211696;23;20425;-67
2023/03/28 13:01:02;;;;;;;2.40;2.00;;;16.50;36.00;;;;;;6211110;23;21063;-65
2023/03/28 13:03:36;;;;;;;4.37;2.10;;;16.60;34.40;;;;;;6211484;23;20874;-67
2023/03/28 13:06:25;;;;;;;3.37;2.10;;;16.30;34.40;;;;;;6211674;23;20471;-65
2023/03/28 13:09:07;;;;;;;5.60;1.93;;;16.30;35.10;;;;;;6210776;23;20415;-66
2023/03/28 13:11:43;;;;;;;7.20;2.20;;;16.60;35.30;;;;;;6211457;23;20468;-67
2023/03/28 13:14:32;;;;;;;4.43;2.10;;;17.00;35.10;;;;;;6211350;23;20420;-66
2023/03/28 13:17:02;;;;;;;2.20;1.90;;;17.40;34.00;;;;;;6210598;23;20452;-66